createdAt,value
2023-04-27T00:01:49.763Z,4.35
2023-04-27T00:04:17.994Z,4.57
2023-04-27T00:06:45.898Z,4.00
2023-04-27T00:09:14.024Z,4.70
2023-04-27T00:11:41.930Z,4.50
2023-04-27T00:14:09.764Z,4.05
2023-04-27T00:16:37.693Z,4.28
2023-04-27T00:19:06.893Z,4.93
2023-04-27T00:21:34.656Z,4.40
2023-04-27T00:24:02.486Z,4.57
2023-04-27T00:26:30.212Z,4.68
2023-04-27T00:28:57.948Z,4.82
2023-04-27T00:31:25.894Z,3.97
2023-04-27T00:33:53.661Z,4.57
2023-04-27T00:36:22.695Z,4.55
2023-04-27T00:38:50.428Z,4.30
2023-04-27T00:41:18.197Z,4.18
2023-04-27T00:43:47.197Z,4.47
2023-04-27T00:46:16.289Z,4.50
2023-04-27T00:48:45.526Z,4.88
2023-04-27T00:51:13.322Z,4.28
2023-04-27T00:53:42.889Z,4.15
2023-04-27T00:56:11.073Z,4.22
2023-04-27T00:58:38.866Z,4.35
2023-04-27T01:01:06.843Z,4.50
2023-04-27T01:03:34.765Z,3.85
2023-04-27T01:06:02.689Z,4.32
2023-04-27T01:08:30.646Z,4.35
2023-04-27T01:10:59.716Z,4.05
2023-04-27T01:13:27.563Z,3.90
2023-04-27T01:15:55.345Z,4.38
2023-04-27T01:18:23.404Z,4.40
2023-04-27T01:20:51.598Z,4.47
2023-04-27T01:23:20.801Z,4.38
2023-04-27T01:25:48.606Z,4.32
2023-04-27T01:28:16.432Z,4.90
2023-04-27T01:30:44.180Z,4.53
2023-04-27T01:33:11.954Z,4.25
2023-04-27T01:35:39.654Z,5.05
2023-04-27T01:38:07.481Z,4.43
2023-04-27T01:40:36.607Z,4.50
2023-04-27T01:43:04.354Z,4.32
2023-04-27T01:45:32.112Z,4.57
2023-04-27T01:47:59.899Z,4.50
2023-04-27T01:50:27.936Z,5.10
2023-04-27T01:52:55.714Z,4.32
2023-04-27T01:55:23.636Z,4.82
2023-04-27T01:57:52.759Z,4.20
2023-04-27T02:00:20.900Z,4.80
2023-04-27T02:02:51.220Z,4.72
2023-04-27T02:05:19.262Z,4.40
2023-04-27T02:07:46.945Z,4.78
2023-04-27T02:10:14.689Z,4.68
2023-04-27T02:12:42.490Z,4.60
2023-04-27T02:15:11.855Z,4.20
2023-04-27T02:17:40.048Z,4.53
2023-04-27T02:20:08.986Z,4.05
2023-04-27T02:22:36.954Z,4.30
2023-04-27T02:25:05.434Z,3.95
2023-04-27T02:27:33.172Z,4.35
2023-04-27T02:30:05.460Z,4.25
2023-04-27T02:32:35.269Z,4.13
2023-04-27T02:35:03.180Z,4.72
2023-04-27T02:37:31.074Z,4.53
2023-04-27T02:39:58.977Z,4.25
2023-04-27T02:42:27.127Z,4.18
2023-04-27T02:44:55.479Z,4.07
2023-04-27T02:47:23.286Z,4.43
2023-04-27T02:49:52.953Z,4.20
2023-04-27T02:52:20.783Z,4.20
2023-04-27T02:54:48.755Z,4.45
2023-04-27T02:57:16.467Z,4.30
2023-04-27T02:59:44.244Z,4.32
2023-04-27T03:02:11.956Z,4.30
2023-04-27T03:04:39.741Z,4.00
2023-04-27T03:07:08.929Z,4.90
2023-04-27T03:09:36.778Z,4.60
2023-04-27T03:12:05.194Z,4.35
2023-04-27T03:14:32.933Z,4.50
2023-04-27T03:17:01.924Z,4.28
2023-04-27T03:19:29.837Z,4.35
2023-04-27T03:21:57.541Z,4.70
2023-04-27T03:24:26.751Z,4.60
2023-04-27T03:26:54.492Z,4.35
2023-04-27T03:29:22.169Z,4.20
2023-04-27T03:31:49.976Z,4.63
2023-04-27T03:34:17.924Z,4.70
2023-04-27T03:36:45.843Z,4.72
2023-04-27T03:39:13.939Z,4.47
2023-04-27T03:41:43.258Z,4.68
2023-04-27T03:44:10.981Z,4.70
2023-04-27T03:46:38.733Z,5.28
2023-04-27T03:49:06.672Z,4.65
2023-04-27T03:51:34.612Z,4.78
2023-04-27T03:54:02.702Z,4.45
2023-04-27T03:56:30.692Z,4.60
2023-04-27T03:58:59.829Z,5.05
2023-04-27T04:01:27.584Z,5.18
2023-04-27T04:03:55.490Z,5.10
2023-04-27T04:06:23.385Z,4.97
2023-04-27T04:08:51.068Z,5.15
2023-04-27T04:11:18.794Z,4.68
2023-04-27T04:13:47.442Z,5.40
2023-04-27T04:16:16.512Z,4.90
2023-04-27T04:18:44.256Z,10.57
2023-04-27T04:21:12.075Z,5.30
2023-04-27T04:23:41.232Z,5.28
2023-04-27T04:26:09.963Z,5.35
2023-04-27T04:28:38.437Z,4.90
2023-04-27T04:31:06.624Z,5.15
2023-04-27T04:33:35.953Z,4.85
2023-04-27T04:36:05.067Z,5.20
2023-04-27T04:38:33.828Z,5.53
2023-04-27T04:41:01.678Z,6.10
2023-04-27T04:43:29.532Z,5.60
2023-04-27T04:45:57.296Z,5.53
2023-04-27T04:48:25.679Z,5.10
2023-04-27T04:50:54.816Z,5.90
2023-04-27T04:53:22.606Z,5.72
2023-04-27T04:55:50.324Z,5.55
2023-04-27T04:58:18.101Z,6.00
2023-04-27T05:00:45.831Z,6.32
2023-04-27T05:03:13.668Z,5.38
2023-04-27T05:05:41.517Z,5.90
2023-04-27T05:08:10.813Z,5.78
2023-04-27T05:10:38.544Z,6.03
2023-04-27T05:13:07.288Z,5.65
2023-04-27T05:15:35.073Z,5.65
2023-04-27T05:18:02.929Z,5.45
2023-04-27T05:20:30.696Z,6.65
2023-04-27T05:22:58.504Z,5.70
2023-04-27T05:25:27.661Z,4.78
2023-04-27T05:27:55.455Z,5.72
2023-04-27T05:30:23.424Z,6.18
2023-04-27T05:32:51.448Z,5.68
2023-04-27T05:35:19.273Z,5.70
2023-04-27T05:37:47.092Z,5.72
2023-04-27T05:40:16.439Z,5.95
2023-04-27T05:42:47.185Z,5.68
2023-04-27T05:45:15.273Z,5.50
2023-04-27T05:47:43.335Z,5.85
2023-04-27T05:50:11.775Z,5.43
2023-04-27T05:52:39.773Z,5.90
2023-04-27T05:55:09.106Z,5.88
2023-04-27T05:57:36.963Z,5.43
2023-04-27T06:00:11.141Z,5.70
2023-04-27T06:02:39.325Z,5.55
2023-04-27T06:05:08.657Z,5.63
2023-04-27T06:07:37.626Z,5.47
2023-04-27T06:10:06.119Z,5.63
2023-04-27T06:12:34.161Z,5.30
2023-04-27T06:15:03.879Z,5.78
2023-04-27T06:17:33.198Z,5.68
2023-04-27T06:20:01.368Z,5.68
2023-04-27T06:22:29.298Z,5.55
2023-04-27T06:24:57.275Z,5.15
2023-04-27T06:27:25.306Z,5.05
2023-04-27T06:29:53.286Z,5.10
2023-04-27T06:32:21.196Z,6.20
2023-04-27T06:34:51.154Z,5.57
2023-04-27T06:37:19.140Z,5.32
2023-04-27T06:39:47.508Z,5.38
2023-04-27T06:42:15.476Z,5.30
2023-04-27T06:44:43.339Z,5.47
2023-04-27T06:47:11.273Z,5.13
2023-04-27T06:49:39.384Z,5.50
2023-04-27T06:52:08.531Z,5.47
2023-04-27T06:54:36.361Z,5.70
2023-04-27T06:57:04.338Z,5.22
2023-04-27T06:59:32.100Z,5.22
2023-04-27T07:02:00.391Z,5.03
2023-04-27T07:04:28.549Z,5.30
2023-04-27T07:06:57.385Z,5.32
2023-04-27T07:09:27.968Z,5.22
2023-04-27T07:11:57.281Z,5.28
2023-04-27T07:14:25.070Z,5.10
2023-04-27T07:16:52.913Z,5.78
2023-04-27T07:19:20.635Z,5.18
2023-04-27T07:21:48.400Z,5.55
2023-04-27T07:24:16.436Z,5.55
2023-04-27T07:26:45.599Z,5.38
2023-04-27T07:29:26.534Z,5.18
2023-04-27T07:31:55.651Z,4.78
2023-04-27T07:34:24.005Z,5.35
2023-04-27T07:36:54.169Z,4.80
2023-04-27T07:39:22.296Z,5.80
2023-04-27T07:41:51.815Z,4.88
2023-04-27T07:44:20.149Z,4.93
2023-04-27T07:46:48.968Z,5.38
2023-04-27T07:49:16.854Z,5.10
2023-04-27T07:51:44.732Z,4.80
2023-04-27T07:54:12.506Z,5.60
2023-04-27T07:56:42.738Z,5.30
2023-04-27T07:59:12.498Z,5.40
2023-04-27T08:01:40.659Z,5.28
2023-04-27T08:04:08.794Z,4.90
2023-04-27T08:06:37.167Z,4.68
2023-04-27T08:09:06.235Z,4.53
2023-04-27T08:11:34.242Z,4.07
2023-04-27T08:14:02.051Z,4.53
2023-04-27T08:16:31.337Z,4.35
2023-04-27T08:19:00.700Z,4.20
2023-04-27T08:21:30.523Z,4.10
2023-04-27T08:23:58.337Z,4.47
2023-04-27T08:26:26.453Z,4.30
2023-04-27T08:28:54.437Z,4.57
2023-04-27T08:31:22.260Z,4.32
2023-04-27T08:33:51.430Z,3.90
2023-04-27T08:36:19.391Z,4.35
2023-04-27T08:38:47.288Z,4.38
2023-04-27T08:41:22.211Z,4.20
2023-04-27T08:43:51.269Z,4.50
2023-04-27T08:46:23.251Z,4.30
2023-04-27T08:48:53.614Z,4.78
2023-04-27T08:51:22.833Z,4.65
2023-04-27T08:53:52.195Z,4.30
2023-04-27T08:56:20.658Z,4.40
2023-04-27T08:58:48.829Z,4.25
2023-04-27T09:01:17.165Z,3.83
2023-04-27T09:03:46.828Z,4.25
2023-04-27T09:06:16.582Z,4.40
2023-04-27T09:08:46.360Z,4.20
2023-04-27T09:11:14.681Z,4.97
2023-04-27T09:13:45.343Z,6.60
2023-04-27T09:16:15.147Z,10.00
2023-04-27T09:18:44.625Z,7.60
2023-04-27T09:21:12.381Z,6.15
2023-04-27T09:23:41.898Z,4.72
2023-04-27T09:26:09.798Z,4.70
2023-04-27T09:28:41.286Z,5.10
2023-04-27T09:31:10.859Z,4.63
2023-04-27T09:33:39.141Z,5.15
2023-04-27T09:36:08.239Z,4.82
2023-04-27T09:38:36.024Z,4.80
2023-04-27T09:41:05.351Z,4.97
2023-04-27T09:43:33.377Z,4.95
2023-04-27T09:46:01.722Z,4.80
2023-04-27T09:48:29.557Z,4.72
2023-04-27T09:50:57.545Z,5.10
2023-04-27T09:53:31.597Z,5.03
2023-04-27T09:56:14.339Z,5.28
2023-04-27T10:01:27.633Z,5.25
2023-04-27T10:04:08.294Z,5.40
2023-04-27T10:07:01.387Z,5.30
2023-04-27T10:09:35.319Z,4.60
2023-04-27T10:12:17.127Z,4.80
2023-04-27T10:14:55.471Z,4.97
2023-04-27T10:17:30.095Z,4.95
2023-04-27T10:19:59.758Z,5.30
2023-04-27T10:22:40.141Z,4.88
2023-04-27T10:25:22.100Z,5.20
2023-04-27T10:27:52.904Z,5.15
2023-04-27T10:30:21.861Z,4.80
2023-04-27T10:32:54.262Z,5.32
2023-04-27T10:35:22.923Z,5.50
2023-04-27T10:37:52.140Z,5.60
2023-04-27T10:40:19.985Z,5.32
2023-04-27T10:42:49.734Z,5.93
2023-04-27T10:45:31.410Z,5.85
2023-04-27T10:48:01.665Z,5.28
2023-04-27T10:50:29.885Z,5.38
2023-04-27T10:53:02.301Z,6.03
2023-04-27T10:55:31.214Z,5.20
2023-04-27T10:58:00.166Z,5.38
2023-04-27T11:00:32.397Z,6.10
2023-04-27T11:03:17.414Z,4.93
2023-04-27T11:05:47.016Z,5.03
2023-04-27T11:08:17.162Z,4.85
2023-04-27T11:10:47.600Z,4.60
2023-04-27T11:13:17.412Z,4.50
2023-04-27T11:15:51.580Z,4.70
2023-04-27T11:18:20.931Z,4.30
2023-04-27T11:20:51.041Z,4.22
2023-04-27T11:23:26.817Z,3.83
2023-04-27T11:25:55.407Z,4.50
2023-04-27T11:28:24.345Z,3.92
2023-04-27T11:31:00.908Z,4.00
2023-04-27T11:33:29.453Z,3.85
2023-04-27T11:35:58.260Z,3.70
2023-04-27T11:38:27.623Z,3.92
2023-04-27T11:41:02.763Z,3.42
2023-04-27T11:43:31.162Z,4.10
2023-04-27T11:46:04.248Z,3.80
2023-04-27T11:48:32.404Z,4.00
2023-04-27T11:51:01.464Z,4.32
2023-04-27T11:53:33.984Z,4.03
2023-04-27T11:58:30.996Z,4.20
2023-04-27T12:01:00.206Z,4.40
2023-04-27T12:03:30.514Z,4.00
2023-04-27T12:06:11.491Z,4.30
2023-04-27T12:08:47.021Z,3.45
2023-04-27T12:11:15.058Z,3.63
2023-04-27T12:13:42.913Z,3.80
2023-04-27T12:16:12.280Z,3.70
2023-04-27T12:18:40.033Z,3.92
2023-04-27T12:21:08.518Z,3.78
2023-04-27T12:23:36.973Z,4.20
2023-04-27T12:26:05.114Z,3.83
2023-04-27T12:28:32.939Z,3.65
2023-04-27T12:31:00.859Z,3.58
2023-04-27T12:33:30.180Z,3.65
2023-04-27T12:35:57.876Z,3.85
2023-04-27T12:38:25.926Z,3.45
2023-04-27T12:40:53.675Z,3.72
2023-04-27T12:43:21.558Z,4.30
2023-04-27T12:45:49.368Z,3.30
2023-04-27T12:48:17.813Z,3.53
2023-04-27T12:50:47.179Z,3.70
2023-04-27T12:53:14.836Z,3.40
2023-04-27T12:55:42.628Z,3.83
2023-04-27T12:58:10.276Z,3.47
2023-04-27T13:00:38.566Z,4.43
2023-04-27T13:03:08.137Z,3.88
2023-04-27T13:05:36.682Z,3.60
2023-04-27T13:08:06.609Z,3.50
2023-04-27T13:10:34.394Z,4.00
2023-04-27T13:13:02.425Z,3.80
2023-04-27T13:15:30.330Z,3.75
2023-04-27T13:17:59.337Z,3.97
2023-04-27T13:20:27.116Z,3.92
2023-04-27T13:22:55.039Z,4.43
2023-04-27T13:25:24.496Z,3.70
2023-04-27T13:27:52.433Z,3.55
2023-04-27T13:30:20.425Z,3.95
2023-04-27T13:32:48.183Z,3.60
2023-04-27T13:35:15.952Z,3.88
2023-04-27T13:37:43.735Z,3.58
2023-04-27T13:40:13.286Z,3.80
2023-04-27T13:42:42.421Z,3.60
2023-04-27T13:45:11.326Z,3.33
2023-04-27T13:47:40.405Z,3.38
2023-04-27T13:50:09.848Z,3.35
2023-04-27T13:52:38.728Z,3.20
2023-04-27T13:55:07.894Z,3.45
2023-04-27T13:57:36.051Z,4.03
2023-04-27T14:00:08.077Z,3.80
2023-04-27T14:02:36.351Z,4.15
2023-04-27T14:05:06.455Z,3.50
2023-04-27T14:07:35.610Z,3.50
2023-04-27T14:10:03.928Z,3.22
2023-04-27T14:12:32.533Z,3.10
2023-04-27T14:15:00.648Z,3.65
2023-04-27T14:17:29.952Z,3.55
2023-04-27T14:19:57.757Z,3.15
2023-04-27T14:22:25.638Z,3.38
2023-04-27T14:24:53.496Z,3.70
2023-04-27T14:27:21.252Z,3.80
2023-04-27T14:29:49.138Z,3.50
2023-04-27T14:32:17.082Z,3.70
2023-04-27T14:34:46.381Z,3.35
2023-04-27T14:37:14.217Z,3.28
2023-04-27T14:39:44.462Z,3.80
2023-04-27T14:42:13.186Z,3.10
2023-04-27T14:44:41.118Z,3.88
2023-04-27T14:47:09.051Z,3.67
2023-04-27T14:49:36.879Z,3.00
2023-04-27T14:52:06.853Z,3.60
2023-04-27T14:54:35.655Z,3.45
2023-04-27T14:57:03.648Z,3.25
2023-04-27T14:59:31.518Z,3.03
2023-04-27T15:02:01.140Z,3.95
2023-04-27T15:04:29.268Z,4.05
2023-04-27T15:06:57.450Z,3.70
2023-04-27T15:09:26.740Z,3.72
2023-04-27T15:11:55.826Z,3.75
2023-04-27T15:14:23.711Z,4.00
2023-04-27T15:16:51.817Z,5.15
2023-04-27T15:19:19.592Z,3.80
2023-04-27T15:21:48.669Z,3.90
2023-04-27T15:24:16.549Z,3.40
2023-04-27T15:26:48.079Z,3.70
2023-04-27T15:29:16.412Z,3.75
2023-04-27T15:31:45.035Z,3.70
2023-04-27T15:34:12.974Z,3.58
2023-04-27T15:36:40.750Z,3.67
2023-04-27T15:39:10.141Z,3.92
2023-04-27T15:41:38.347Z,3.47
2023-04-27T15:44:07.673Z,3.58
2023-04-27T15:46:36.369Z,4.80
2023-04-27T15:49:04.254Z,4.50
2023-04-27T15:51:32.349Z,3.50
2023-04-27T15:54:00.233Z,3.30
2023-04-27T15:56:30.511Z,3.63
2023-04-27T15:58:58.790Z,3.38
2023-04-27T16:01:28.116Z,3.45
2023-04-27T16:03:56.672Z,3.92
2023-04-27T16:06:30.378Z,3.20
2023-04-27T16:08:58.211Z,3.05
2023-04-27T16:11:26.079Z,3.42
2023-04-27T16:13:54.072Z,3.70
2023-04-27T16:16:21.963Z,2.90
2023-04-27T16:18:51.233Z,3.45
2023-04-27T16:21:19.343Z,3.40
2023-04-27T16:23:47.327Z,3.08
2023-04-27T16:26:15.228Z,2.90
2023-04-27T16:28:43.168Z,2.90
2023-04-27T16:31:11.270Z,3.13
2023-04-27T16:33:39.128Z,3.05
2023-04-27T16:36:09.004Z,2.90
2023-04-27T16:38:39.141Z,3.38
2023-04-27T16:41:07.396Z,4.03
2023-04-27T16:43:35.277Z,3.20
2023-04-27T16:46:03.178Z,3.35
2023-04-27T16:48:31.309Z,2.90
2023-04-27T16:50:59.477Z,3.60
2023-04-27T16:53:28.782Z,3.15
2023-04-27T16:55:56.648Z,3.20
2023-04-27T16:58:24.486Z,3.10
2023-04-27T17:00:52.330Z,3.25
2023-04-27T17:03:20.294Z,2.90
2023-04-27T17:05:48.341Z,3.38
2023-04-27T17:08:16.194Z,5.63
2023-04-27T17:10:46.472Z,5.28
2023-04-27T17:13:16.472Z,4.78
2023-04-27T17:15:44.310Z,5.38
2023-04-27T17:18:12.200Z,3.67
2023-04-27T17:20:41.689Z,4.93
2023-04-27T17:23:10.215Z,4.63
2023-04-27T17:25:38.010Z,3.47
2023-04-27T17:28:07.314Z,4.68
2023-04-27T17:30:35.189Z,3.80
2023-04-27T17:33:03.863Z,4.18
2023-04-27T17:35:31.972Z,3.92
2023-04-27T17:37:59.832Z,3.85
2023-04-27T17:40:27.731Z,5.70
2023-04-27T17:42:57.858Z,4.10
2023-04-27T17:45:28.778Z,4.85
2023-04-27T17:47:56.715Z,4.38
2023-04-27T17:50:25.892Z,4.10
2023-04-27T17:52:54.228Z,4.00
2023-04-27T17:55:22.318Z,4.40
2023-04-27T17:57:50.495Z,3.78
2023-04-27T18:00:19.434Z,3.80
2023-04-27T18:02:49.724Z,3.60
2023-04-27T18:05:18.291Z,3.15
2023-04-27T18:07:47.321Z,3.45
2023-04-27T18:10:15.269Z,3.05
2023-04-27T18:12:43.166Z,3.40
2023-04-27T18:15:11.812Z,4.35
2023-04-27T18:17:39.677Z,4.68
2023-04-27T18:20:10.819Z,4.10
2023-04-27T18:22:39.828Z,3.85
2023-04-27T18:25:08.828Z,3.47
2023-04-27T18:27:37.496Z,3.75
2023-04-27T18:30:06.275Z,3.92
2023-04-27T18:32:34.782Z,3.45
2023-04-27T18:35:02.928Z,4.03
2023-04-27T18:37:32.254Z,4.15
2023-04-27T18:40:00.136Z,3.78
2023-04-27T18:42:27.964Z,3.78
2023-04-27T18:44:57.708Z,3.63
2023-04-27T18:47:26.461Z,3.80
2023-04-27T18:49:54.298Z,4.07
2023-04-27T18:52:22.072Z,4.10
2023-04-27T18:54:51.223Z,3.45
2023-04-27T18:57:19.007Z,3.53
2023-04-27T18:59:46.786Z,3.38
2023-04-27T19:02:14.825Z,3.90
2023-04-27T19:04:45.578Z,3.60
2023-04-27T19:07:23.273Z,3.50
2023-04-27T19:09:54.860Z,3.78
2023-04-27T19:12:23.882Z,3.60
2023-04-27T19:14:52.393Z,3.83
2023-04-27T19:17:20.605Z,3.85
2023-04-27T19:19:48.630Z,3.40
2023-04-27T19:22:16.601Z,3.60
2023-04-27T19:24:44.494Z,4.07
2023-04-27T19:27:13.928Z,4.43
2023-04-27T19:29:50.871Z,4.20
2023-04-27T19:32:19.525Z,3.72
2023-04-27T19:34:47.701Z,4.30
2023-04-27T19:37:16.009Z,4.90
2023-04-27T19:39:43.895Z,3.95
2023-04-27T19:42:14.154Z,5.57
2023-04-27T19:44:42.033Z,4.82
2023-04-27T19:47:10.761Z,5.07
2023-04-27T19:49:39.011Z,4.55
2023-04-27T19:52:07.543Z,4.45
2023-04-27T19:54:36.116Z,4.30
2023-04-27T19:57:04.046Z,4.55
2023-04-27T19:59:33.272Z,4.70
2023-04-27T20:02:01.074Z,4.40
2023-04-27T20:04:29.096Z,5.00
2023-04-27T20:06:57.013Z,4.32
2023-04-27T20:09:24.778Z,5.03
2023-04-27T20:11:52.624Z,4.53
2023-04-27T20:14:20.525Z,4.57
2023-04-27T20:16:49.726Z,4.93
2023-04-27T20:19:19.351Z,4.90
2023-04-27T20:21:47.182Z,4.50
2023-04-27T20:24:15.114Z,5.03
2023-04-27T20:26:43.074Z,5.40
2023-04-27T20:29:10.854Z,4.65
2023-04-27T20:31:38.599Z,4.63
2023-04-27T20:34:07.795Z,5.30
2023-04-27T20:36:35.573Z,5.13
2023-04-27T20:39:05.575Z,5.03
2023-04-27T20:41:34.390Z,5.32
2023-04-27T20:44:02.720Z,5.57
2023-04-27T20:46:30.624Z,5.38
2023-04-27T20:48:58.354Z,5.00
2023-04-27T20:51:27.869Z,4.80
2023-04-27T20:53:55.933Z,5.03
2023-04-27T20:56:23.732Z,4.35
2023-04-27T20:58:51.529Z,5.53
2023-04-27T21:01:19.715Z,5.28
2023-04-27T21:03:47.663Z,4.47
2023-04-27T21:06:15.699Z,4.78
2023-04-27T21:08:44.863Z,5.28
2023-04-27T21:11:12.834Z,4.65
2023-04-27T21:13:40.571Z,5.35
2023-04-27T21:16:08.300Z,4.75
2023-04-27T21:18:36.572Z,7.25
2023-04-27T21:21:04.586Z,10.10
2023-04-27T21:23:35.241Z,9.07
2023-04-27T21:26:04.362Z,7.68
2023-04-27T21:28:32.568Z,7.78
2023-04-27T21:31:00.375Z,5.57
2023-04-27T21:33:28.399Z,5.45
2023-04-27T21:35:56.144Z,5.88
2023-04-27T21:38:23.943Z,6.63
2023-04-27T21:40:51.786Z,6.68
2023-04-27T21:43:21.006Z,6.18
2023-04-27T21:45:49.091Z,5.88
2023-04-27T21:48:16.842Z,5.60
2023-04-27T21:50:45.188Z,5.28
2023-04-27T21:53:12.920Z,5.60
2023-04-27T21:55:40.736Z,5.53
2023-04-27T21:58:08.555Z,5.07
2023-04-27T22:00:37.804Z,5.70
2023-04-27T22:03:05.746Z,6.45
2023-04-27T22:05:37.027Z,6.10
2023-04-27T22:08:05.281Z,6.47
2023-04-27T22:10:34.263Z,6.22
2023-04-27T22:13:08.176Z,5.78
2023-04-27T22:15:44.275Z,6.35
2023-04-27T22:18:12.189Z,6.30
2023-04-27T22:20:40.345Z,6.43
2023-04-27T22:23:09.270Z,7.03
2023-04-27T22:25:37.158Z,6.00
2023-04-27T22:28:05.040Z,5.95
2023-04-27T22:30:32.798Z,6.57
2023-04-27T22:33:02.962Z,6.63
2023-04-27T22:35:31.024Z,5.90
2023-04-27T22:37:59.997Z,6.10
2023-04-27T22:40:27.832Z,6.38
2023-04-27T22:42:56.164Z,6.90
2023-04-27T22:45:24.719Z,7.25
2023-04-27T22:47:52.729Z,7.07
2023-04-27T22:50:22.035Z,6.65
2023-04-27T22:52:50.113Z,6.75
2023-04-27T22:55:17.873Z,6.78
2023-04-27T22:57:45.683Z,6.70
2023-04-27T23:00:14.165Z,7.03
2023-04-27T23:02:42.705Z,8.05
2023-04-27T23:05:12.413Z,7.20
2023-04-27T23:07:42.924Z,6.70
2023-04-27T23:10:11.358Z,7.50
2023-04-27T23:12:39.114Z,7.72
2023-04-27T23:15:08.197Z,7.30
2023-04-27T23:17:36.023Z,8.10
2023-04-27T23:20:11.212Z,8.02
2023-04-27T23:22:46.523Z,8.00
2023-04-27T23:25:14.436Z,6.80
2023-04-27T23:27:42.176Z,6.65
2023-04-27T23:30:11.138Z,7.35
2023-04-27T23:32:39.084Z,7.35
2023-04-27T23:35:07.527Z,7.97
2023-04-27T23:37:35.285Z,7.90
2023-04-27T23:40:06.263Z,7.60
2023-04-27T23:42:34.177Z,7.50
2023-04-27T23:45:02.353Z,7.15
2023-04-27T23:47:30.516Z,7.45
2023-04-27T23:49:58.937Z,7.43
2023-04-27T23:52:26.804Z,7.05
2023-04-27T23:54:54.522Z,8.07
2023-04-27T23:57:23.577Z,7.93
2023-04-27T23:59:51.343Z,7.63
